sensor_id;sensor_type;location;lat;lon;timestamp;P1;durP1;ratioP1;P2;durP2;ratioP2
14817;SDS011;7500;57.698;11.986;2022-09-09T00:01:42;0.97;;;0.70;;
14817;SDS011;7500;57.698;11.986;2022-09-09T00:04:18;0.73;;;0.73;;
14817;SDS011;7500;57.698;11.986;2022-09-09T00:06:55;1.00;;;0.70;;
14817;SDS011;7500;57.698;11.986;2022-09-09T00:09:29;1.93;;;0.80;;
14817;SDS011;7500;57.698;11.986;2022-09-09T00:11:58;0.90;;;0.90;;
14817;SDS011;7500;57.698;11.986;2022-09-09T00:14:34;0.80;;;0.80;;
14817;SDS011;7500;57.698;11.986;2022-09-09T00:17:09;2.20;;;0.80;;
14817;SDS011;7500;57.698;11.986;2022-09-09T00:19:41;2.30;;;0.70;;
14817;SDS011;7500;57.698;11.986;2022-09-09T00:22:17;2.00;;;1.00;;
14817;SDS011;7500;57.698;11.986;2022-09-09T00:24:46;0.80;;;0.70;;
14817;SDS011;7500;57.698;11.986;2022-09-09T00:27:25;1.33;;;0.80;;
14817;SDS011;7500;57.698;11.986;2022-09-09T00:30:12;1.13;;;1.00;;
14817;SDS011;7500;57.698;11.986;2022-09-09T00:32:43;2.83;;;0.70;;
14817;SDS011;7500;57.698;11.986;2022-09-09T00:35:14;4.53;;;1.03;;
14817;SDS011;7500;57.698;11.986;2022-09-09T00:37:44;2.97;;;1.00;;
14817;SDS011;7500;57.698;11.986;2022-09-09T00:40:17;4.10;;;0.80;;
14817;SDS011;7500;57.698;11.986;2022-09-09T00:42:49;1.23;;;0.80;;
14817;SDS011;7500;57.698;11.986;2022-09-09T00:45:35;1.60;;;0.90;;
14817;SDS011;7500;57.698;11.986;2022-09-09T00:48:13;1.67;;;0.80;;
14817;SDS011;7500;57.698;11.986;2022-09-09T00:50:44;0.90;;;0.70;;
14817;SDS011;7500;57.698;11.986;2022-09-09T00:53:21;1.73;;;0.80;;
14817;SDS011;7500;57.698;11.986;2022-09-09T00:55:57;0.87;;;0.87;;
14817;SDS011;7500;57.698;11.986;2022-09-09T00:58:30;1.27;;;0.90;;
14817;SDS011;7500;57.698;11.986;2022-09-09T01:01:00;2.90;;;0.83;;
14817;SDS011;7500;57.698;11.986;2022-09-09T01:03:34;0.87;;;0.67;;
14817;SDS011;7500;57.698;11.986;2022-09-09T01:06:11;0.93;;;0.80;;
14817;SDS011;7500;57.698;11.986;2022-09-09T01:08:42;1.13;;;0.90;;
14817;SDS011;7500;57.698;11.986;2022-09-09T01:11:21;0.70;;;0.70;;
14817;SDS011;7500;57.698;11.986;2022-09-09T01:13:54;1.40;;;0.70;;
14817;SDS011;7500;57.698;11.986;2022-09-09T01:16:29;1.70;;;0.60;;
14817;SDS011;7500;57.698;11.986;2022-09-09T01:18:57;2.00;;;0.80;;
14817;SDS011;7500;57.698;11.986;2022-09-09T01:21:30;2.47;;;0.93;;
14817;SDS011;7500;57.698;11.986;2022-09-09T01:24:12;1.43;;;0.90;;
14817;SDS011;7500;57.698;11.986;2022-09-09T01:26:47;0.80;;;0.80;;
14817;SDS011;7500;57.698;11.986;2022-09-09T01:29:17;0.63;;;0.63;;
14817;SDS011;7500;57.698;11.986;2022-09-09T01:31:52;1.27;;;0.80;;
14817;SDS011;7500;57.698;11.986;2022-09-09T01:34:21;0.70;;;0.70;;
14817;SDS011;7500;57.698;11.986;2022-09-09T01:36:49;0.90;;;0.90;;
14817;SDS011;7500;57.698;11.986;2022-09-09T01:39:23;1.70;;;1.10;;
14817;SDS011;7500;57.698;11.986;2022-09-09T01:41:52;0.80;;;0.80;;
14817;SDS011;7500;57.698;11.986;2022-09-09T01:44:20;3.03;;;0.90;;
14817;SDS011;7500;57.698;11.986;2022-09-09T01:46:47;1.07;;;0.70;;
14817;SDS011;7500;57.698;11.986;2022-09-09T01:49:14;0.73;;;0.73;;
14817;SDS011;7500;57.698;11.986;2022-09-09T01:51:42;0.93;;;0.80;;
14817;SDS011;7500;57.698;11.986;2022-09-09T01:54:10;1.50;;;0.73;;
14817;SDS011;7500;57.698;11.986;2022-09-09T01:56:40;1.53;;;0.70;;
14817;SDS011;7500;57.698;11.986;2022-09-09T01:59:19;1.80;;;0.77;;
14817;SDS011;7500;57.698;11.986;2022-09-09T02:01:56;1.13;;;0.80;;
14817;SDS011;7500;57.698;11.986;2022-09-09T02:04:36;0.90;;;0.90;;
14817;SDS011;7500;57.698;11.986;2022-09-09T02:07:06;0.83;;;0.70;;
14817;SDS011;7500;57.698;11.986;2022-09-09T02:09:47;1.43;;;0.90;;
14817;SDS011;7500;57.698;11.986;2022-09-09T02:12:23;1.70;;;0.87;;
14817;SDS011;7500;57.698;11.986;2022-09-09T02:14:56;2.10;;;1.00;;
14817;SDS011;7500;57.698;11.986;2022-09-09T02:17:29;1.07;;;0.70;;
14817;SDS011;7500;57.698;11.986;2022-09-09T02:20:03;1.00;;;0.90;;
14817;SDS011;7500;57.698;11.986;2022-09-09T02:22:33;0.90;;;0.90;;
14817;SDS011;7500;57.698;11.986;2022-09-09T02:25:06;1.00;;;0.90;;
14817;SDS011;7500;57.698;11.986;2022-09-09T02:27:36;2.17;;;1.00;;
14817;SDS011;7500;57.698;11.986;2022-09-09T02:30:06;3.63;;;1.00;;
14817;SDS011;7500;57.698;11.986;2022-09-09T02:32:34;0.97;;;0.87;;
14817;SDS011;7500;57.698;11.986;2022-09-09T02:35:03;2.17;;;1.10;;
14817;SDS011;7500;57.698;11.986;2022-09-09T02:37:36;1.77;;;0.90;;
14817;SDS011;7500;57.698;11.986;2022-09-09T02:40:05;1.93;;;1.00;;
14817;SDS011;7500;57.698;11.986;2022-09-09T02:42:38;1.30;;;0.90;;
14817;SDS011;7500;57.698;11.986;2022-09-09T02:45:08;0.87;;;0.80;;
14817;SDS011;7500;57.698;11.986;2022-09-09T02:47:37;1.40;;;1.00;;
14817;SDS011;7500;57.698;11.986;2022-09-09T02:50:11;1.10;;;0.90;;
14817;SDS011;7500;57.698;11.986;2022-09-09T02:52:51;1.93;;;1.20;;
14817;SDS011;7500;57.698;11.986;2022-09-09T02:55:29;1.10;;;1.00;;
14817;SDS011;7500;57.698;11.986;2022-09-09T02:58:04;0.97;;;0.97;;
14817;SDS011;7500;57.698;11.986;2022-09-09T03:00:35;2.63;;;1.00;;
14817;SDS011;7500;57.698;11.986;2022-09-09T03:03:02;0.97;;;0.97;;
14817;SDS011;7500;57.698;11.986;2022-09-09T03:05:29;1.00;;;1.00;;
14817;SDS011;7500;57.698;11.986;2022-09-09T03:07:56;2.03;;;1.17;;
14817;SDS011;7500;57.698;11.986;2022-09-09T03:10:24;1.30;;;1.10;;
14817;SDS011;7500;57.698;11.986;2022-09-09T03:12:50;0.80;;;0.70;;
14817;SDS011;7500;57.698;11.986;2022-09-09T03:15:17;0.70;;;0.70;;
14817;SDS011;7500;57.698;11.986;2022-09-09T03:17:45;0.80;;;0.80;;
14817;SDS011;7500;57.698;11.986;2022-09-09T03:20:12;4.27;;;1.00;;
14817;SDS011;7500;57.698;11.986;2022-09-09T03:22:39;0.97;;;0.90;;
14817;SDS011;7500;57.698;11.986;2022-09-09T03:25:06;1.63;;;0.90;;
14817;SDS011;7500;57.698;11.986;2022-09-09T03:27:34;1.50;;;1.00;;
14817;SDS011;7500;57.698;11.986;2022-09-09T03:30:00;2.27;;;1.00;;
14817;SDS011;7500;57.698;11.986;2022-09-09T03:32:28;1.97;;;1.00;;
14817;SDS011;7500;57.698;11.986;2022-09-09T03:34:57;1.97;;;0.80;;
14817;SDS011;7500;57.698;11.986;2022-09-09T03:37:25;1.20;;;0.90;;
14817;SDS011;7500;57.698;11.986;2022-09-09T03:39:52;1.50;;;0.97;;
14817;SDS011;7500;57.698;11.986;2022-09-09T03:42:20;1.60;;;0.80;;
14817;SDS011;7500;57.698;11.986;2022-09-09T03:44:47;2.77;;;1.20;;
14817;SDS011;7500;57.698;11.986;2022-09-09T03:47:15;2.20;;;1.07;;
14817;SDS011;7500;57.698;11.986;2022-09-09T03:49:43;1.30;;;1.20;;
14817;SDS011;7500;57.698;11.986;2022-09-09T03:52:11;0.80;;;0.80;;
14817;SDS011;7500;57.698;11.986;2022-09-09T03:54:38;1.93;;;1.20;;
14817;SDS011;7500;57.698;11.986;2022-09-09T03:57:07;1.70;;;1.10;;
14817;SDS011;7500;57.698;11.986;2022-09-09T03:59:35;2.50;;;0.90;;
14817;SDS011;7500;57.698;11.986;2022-09-09T04:02:02;1.20;;;1.07;;
14817;SDS011;7500;57.698;11.986;2022-09-09T04:04:29;1.00;;;1.00;;
14817;SDS011;7500;57.698;11.986;2022-09-09T04:06:57;1.67;;;0.90;;
14817;SDS011;7500;57.698;11.986;2022-09-09T04:09:25;1.60;;;1.10;;
14817;SDS011;7500;57.698;11.986;2022-09-09T04:11:52;1.50;;;1.30;;
14817;SDS011;7500;57.698;11.986;2022-09-09T04:14:20;3.20;;;1.10;;
14817;SDS011;7500;57.698;11.986;2022-09-09T04:16:47;0.87;;;0.70;;
14817;SDS011;7500;57.698;11.986;2022-09-09T04:19:14;0.90;;;0.90;;
14817;SDS011;7500;57.698;11.986;2022-09-09T04:21:41;2.40;;;1.00;;
14817;SDS011;7500;57.698;11.986;2022-09-09T04:24:08;1.00;;;1.00;;
14817;SDS011;7500;57.698;11.986;2022-09-09T04:26:36;2.27;;;0.90;;
14817;SDS011;7500;57.698;11.986;2022-09-09T04:29:04;2.27;;;1.00;;
14817;SDS011;7500;57.698;11.986;2022-09-09T04:31:32;1.20;;;1.10;;
14817;SDS011;7500;57.698;11.986;2022-09-09T04:33:59;1.20;;;1.10;;
14817;SDS011;7500;57.698;11.986;2022-09-09T04:36:30;1.43;;;1.20;;
14817;SDS011;7500;57.698;11.986;2022-09-09T04:38:58;1.07;;;1.00;;
14817;SDS011;7500;57.698;11.986;2022-09-09T04:41:26;1.80;;;1.30;;
14817;SDS011;7500;57.698;11.986;2022-09-09T04:43:54;2.30;;;1.20;;
14817;SDS011;7500;57.698;11.986;2022-09-09T04:46:21;3.80;;;1.07;;
14817;SDS011;7500;57.698;11.986;2022-09-09T04:48:49;2.83;;;1.07;;
14817;SDS011;7500;57.698;11.986;2022-09-09T04:51:16;3.30;;;1.50;;
14817;SDS011;7500;57.698;11.986;2022-09-09T04:53:43;1.30;;;1.10;;
14817;SDS011;7500;57.698;11.986;2022-09-09T04:56:10;3.27;;;1.30;;
14817;SDS011;7500;57.698;11.986;2022-09-09T04:58:39;1.80;;;1.50;;
14817;SDS011;7500;57.698;11.986;2022-09-09T05:01:10;1.43;;;1.10;;
14817;SDS011;7500;57.698;11.986;2022-09-09T05:03:37;1.20;;;1.20;;
14817;SDS011;7500;57.698;11.986;2022-09-09T05:06:05;3.77;;;1.47;;
14817;SDS011;7500;57.698;11.986;2022-09-09T05:08:33;3.63;;;1.30;;
14817;SDS011;7500;57.698;11.986;2022-09-09T05:11:00;1.40;;;1.30;;
14817;SDS011;7500;57.698;11.986;2022-09-09T05:13:27;1.27;;;1.17;;
14817;SDS011;7500;57.698;11.986;2022-09-09T05:15:56;1.90;;;1.20;;
14817;SDS011;7500;57.698;11.986;2022-09-09T05:18:25;4.90;;;1.33;;
14817;SDS011;7500;57.698;11.986;2022-09-09T05:20:51;5.33;;;1.33;;
14817;SDS011;7500;57.698;11.986;2022-09-09T05:23:18;1.80;;;1.00;;
14817;SDS011;7500;57.698;11.986;2022-09-09T05:25:54;5.60;;;1.53;;
14817;SDS011;7500;57.698;11.986;2022-09-09T05:28:22;3.23;;;1.10;;
14817;SDS011;7500;57.698;11.986;2022-09-09T05:30:55;1.90;;;1.37;;
14817;SDS011;7500;57.698;11.986;2022-09-09T05:33:22;1.60;;;1.20;;
14817;SDS011;7500;57.698;11.986;2022-09-09T05:35:55;2.60;;;1.17;;
14817;SDS011;7500;57.698;11.986;2022-09-09T05:38:23;3.17;;;1.43;;
14817;SDS011;7500;57.698;11.986;2022-09-09T05:40:50;3.70;;;1.63;;
14817;SDS011;7500;57.698;11.986;2022-09-09T05:43:17;2.63;;;1.63;;
14817;SDS011;7500;57.698;11.986;2022-09-09T05:45:45;2.83;;;1.70;;
14817;SDS011;7500;57.698;11.986;2022-09-09T05:48:12;2.70;;;1.20;;
14817;SDS011;7500;57.698;11.986;2022-09-09T05:50:41;2.03;;;1.27;;
14817;SDS011;7500;57.698;11.986;2022-09-09T05:53:10;1.87;;;1.30;;
14817;SDS011;7500;57.698;11.986;2022-09-09T05:55:37;3.80;;;1.47;;
14817;SDS011;7500;57.698;11.986;2022-09-09T05:58:03;1.70;;;1.40;;
14817;SDS011;7500;57.698;11.986;2022-09-09T06:00:30;4.43;;;1.60;;
14817;SDS011;7500;57.698;11.986;2022-09-09T06:02:57;4.50;;;1.83;;
14817;SDS011;7500;57.698;11.986;2022-09-09T06:05:25;4.20;;;1.80;;
14817;SDS011;7500;57.698;11.986;2022-09-09T06:07:54;4.57;;;1.80;;
14817;SDS011;7500;57.698;11.986;2022-09-09T06:10:21;3.10;;;2.20;;
14817;SDS011;7500;57.698;11.986;2022-09-09T06:12:49;4.00;;;2.00;;
14817;SDS011;7500;57.698;11.986;2022-09-09T06:15:19;3.17;;;2.00;;
14817;SDS011;7500;57.698;11.986;2022-09-09T06:17:46;4.83;;;1.93;;
14817;SDS011;7500;57.698;11.986;2022-09-09T06:20:14;3.83;;;2.00;;
14817;SDS011;7500;57.698;11.986;2022-09-09T06:22:41;4.47;;;2.23;;
14817;SDS011;7500;57.698;11.986;2022-09-09T06:25:09;2.97;;;1.83;;
14817;SDS011;7500;57.698;11.986;2022-09-09T06:27:37;2.50;;;1.90;;
14817;SDS011;7500;57.698;11.986;2022-09-09T06:30:04;4.37;;;2.10;;
14817;SDS011;7500;57.698;11.986;2022-09-09T06:32:32;5.17;;;2.17;;
14817;SDS011;7500;57.698;11.986;2022-09-09T06:35:03;3.67;;;2.00;;
14817;SDS011;7500;57.698;11.986;2022-09-09T06:37:30;2.87;;;2.23;;
14817;SDS011;7500;57.698;11.986;2022-09-09T06:39:57;5.23;;;2.53;;
14817;SDS011;7500;57.698;11.986;2022-09-09T06:42:25;4.60;;;2.10;;
14817;SDS011;7500;57.698;11.986;2022-09-09T06:44:52;8.67;;;5.67;;
14817;SDS011;7500;57.698;11.986;2022-09-09T06:47:19;3.63;;;2.47;;
14817;SDS011;7500;57.698;11.986;2022-09-09T06:49:46;4.90;;;2.53;;
14817;SDS011;7500;57.698;11.986;2022-09-09T06:52:13;5.53;;;3.07;;
14817;SDS011;7500;57.698;11.986;2022-09-09T06:54:39;5.63;;;3.00;;
14817;SDS011;7500;57.698;11.986;2022-09-09T06:57:06;6.20;;;2.60;;
14817;SDS011;7500;57.698;11.986;2022-09-09T06:59:35;4.30;;;2.87;;
14817;SDS011;7500;57.698;11.986;2022-09-09T07:02:01;4.10;;;2.50;;
14817;SDS011;7500;57.698;11.986;2022-09-09T07:04:28;7.40;;;2.80;;
14817;SDS011;7500;57.698;11.986;2022-09-09T07:06:56;7.53;;;2.63;;
14817;SDS011;7500;57.698;11.986;2022-09-09T07:09:23;6.57;;;2.30;;
14817;SDS011;7500;57.698;11.986;2022-09-09T07:11:51;5.67;;;2.70;;
14817;SDS011;7500;57.698;11.986;2022-09-09T07:14:18;3.80;;;2.53;;
14817;SDS011;7500;57.698;11.986;2022-09-09T07:16:48;3.57;;;2.13;;
14817;SDS011;7500;57.698;11.986;2022-09-09T07:19:15;5.67;;;2.30;;
14817;SDS011;7500;57.698;11.986;2022-09-09T07:21:42;2.93;;;2.13;;
14817;SDS011;7500;57.698;11.986;2022-09-09T07:24:09;5.43;;;2.50;;
14817;SDS011;7500;57.698;11.986;2022-09-09T07:26:37;5.87;;;2.77;;
14817;SDS011;7500;57.698;11.986;2022-09-09T07:29:05;3.43;;;2.20;;
14817;SDS011;7500;57.698;11.986;2022-09-09T07:31:33;3.10;;;2.00;;
14817;SDS011;7500;57.698;11.986;2022-09-09T07:34:03;4.80;;;2.00;;
14817;SDS011;7500;57.698;11.986;2022-09-09T07:36:31;2.23;;;1.93;;
14817;SDS011;7500;57.698;11.986;2022-09-09T07:39:00;2.87;;;2.13;;
14817;SDS011;7500;57.698;11.986;2022-09-09T07:41:30;5.70;;;1.83;;
14817;SDS011;7500;57.698;11.986;2022-09-09T07:43:59;3.20;;;2.00;;
14817;SDS011;7500;57.698;11.986;2022-09-09T07:46:30;3.10;;;1.90;;
14817;SDS011;7500;57.698;11.986;2022-09-09T07:48:57;3.30;;;1.90;;
14817;SDS011;7500;57.698;11.986;2022-09-09T07:51:25;2.13;;;1.93;;
14817;SDS011;7500;57.698;11.986;2022-09-09T07:53:54;5.53;;;2.03;;
14817;SDS011;7500;57.698;11.986;2022-09-09T07:56:24;3.27;;;1.80;;
14817;SDS011;7500;57.698;11.986;2022-09-09T07:58:52;6.73;;;1.40;;
14817;SDS011;7500;57.698;11.986;2022-09-09T08:01:21;4.33;;;1.70;;
14817;SDS011;7500;57.698;11.986;2022-09-09T08:03:53;2.83;;;1.70;;
14817;SDS011;7500;57.698;11.986;2022-09-09T08:06:25;5.00;;;1.90;;
14817;SDS011;7500;57.698;11.986;2022-09-09T08:08:53;4.33;;;2.20;;
14817;SDS011;7500;57.698;11.986;2022-09-09T08:11:20;1.93;;;1.60;;
14817;SDS011;7500;57.698;11.986;2022-09-09T08:13:49;3.47;;;1.63;;
14817;SDS011;7500;57.698;11.986;2022-09-09T08:16:18;2.83;;;1.63;;
14817;SDS011;7500;57.698;11.986;2022-09-09T08:18:47;3.40;;;1.60;;
14817;SDS011;7500;57.698;11.986;2022-09-09T08:21:15;3.23;;;1.80;;
14817;SDS011;7500;57.698;11.986;2022-09-09T08:23:45;6.17;;;1.87;;
14817;SDS011;7500;57.698;11.986;2022-09-09T08:26:13;4.30;;;1.90;;
14817;SDS011;7500;57.698;11.986;2022-09-09T08:28:42;3.57;;;1.90;;
14817;SDS011;7500;57.698;11.986;2022-09-09T08:31:10;5.27;;;1.70;;
14817;SDS011;7500;57.698;11.986;2022-09-09T08:33:38;3.33;;;1.70;;
14817;SDS011;7500;57.698;11.986;2022-09-09T08:36:06;4.57;;;1.80;;
14817;SDS011;7500;57.698;11.986;2022-09-09T08:38:36;5.57;;;2.00;;
14817;SDS011;7500;57.698;11.986;2022-09-09T08:41:12;3.30;;;1.80;;
14817;SDS011;7500;57.698;11.986;2022-09-09T08:44:00;3.77;;;1.30;;
14817;SDS011;7500;57.698;11.986;2022-09-09T08:46:32;5.37;;;1.97;;
14817;SDS011;7500;57.698;11.986;2022-09-09T08:49:05;4.33;;;1.83;;
14817;SDS011;7500;57.698;11.986;2022-09-09T08:51:43;3.27;;;1.77;;
14817;SDS011;7500;57.698;11.986;2022-09-09T08:54:09;6.50;;;2.10;;
14817;SDS011;7500;57.698;11.986;2022-09-09T08:56:38;6.47;;;1.70;;
14817;SDS011;7500;57.698;11.986;2022-09-09T08:59:05;3.47;;;1.90;;
14817;SDS011;7500;57.698;11.986;2022-09-09T09:01:39;3.17;;;1.60;;
14817;SDS011;7500;57.698;11.986;2022-09-09T09:04:20;3.83;;;1.93;;
14817;SDS011;7500;57.698;11.986;2022-09-09T09:06:59;3.90;;;1.60;;
14817;SDS011;7500;57.698;11.986;2022-09-09T09:09:36;2.90;;;1.60;;
14817;SDS011;7500;57.698;11.986;2022-09-09T09:12:16;3.37;;;1.80;;
14817;SDS011;7500;57.698;11.986;2022-09-09T09:14:46;4.43;;;1.67;;
14817;SDS011;7500;57.698;11.986;2022-09-09T09:17:14;5.97;;;2.00;;
14817;SDS011;7500;57.698;11.986;2022-09-09T09:19:44;3.97;;;2.10;;
14817;SDS011;7500;57.698;11.986;2022-09-09T09:22:14;3.27;;;1.90;;
14817;SDS011;7500;57.698;11.986;2022-09-09T09:24:47;3.23;;;1.90;;
14817;SDS011;7500;57.698;11.986;2022-09-09T09:27:21;5.13;;;1.70;;
14817;SDS011;7500;57.698;11.986;2022-09-09T09:29:56;3.10;;;2.10;;
14817;SDS011;7500;57.698;11.986;2022-09-09T09:32:25;4.20;;;2.10;;
14817;SDS011;7500;57.698;11.986;2022-09-09T09:34:57;2.97;;;1.83;;
14817;SDS011;7500;57.698;11.986;2022-09-09T09:37:30;4.07;;;2.20;;
14817;SDS011;7500;57.698;11.986;2022-09-09T09:40:10;4.40;;;2.20;;
14817;SDS011;7500;57.698;11.986;2022-09-09T09:42:46;6.67;;;4.50;;
14817;SDS011;7500;57.698;11.986;2022-09-09T09:45:17;4.30;;;1.90;;
14817;SDS011;7500;57.698;11.986;2022-09-09T09:47:57;6.53;;;2.17;;
14817;SDS011;7500;57.698;11.986;2022-09-09T09:50:28;5.53;;;2.17;;
14817;SDS011;7500;57.698;11.986;2022-09-09T09:52:57;2.80;;;1.90;;
14817;SDS011;7500;57.698;11.986;2022-09-09T09:55:25;3.87;;;1.87;;
14817;SDS011;7500;57.698;11.986;2022-09-09T09:58:01;3.40;;;2.00;;
14817;SDS011;7500;57.698;11.986;2022-09-09T10:00:29;5.87;;;2.20;;
14817;SDS011;7500;57.698;11.986;2022-09-09T10:02:56;3.33;;;1.80;;
14817;SDS011;7500;57.698;11.986;2022-09-09T10:05:23;3.67;;;1.97;;
14817;SDS011;7500;57.698;11.986;2022-09-09T10:10:40;7.37;;;2.10;;
14817;SDS011;7500;57.698;11.986;2022-09-09T10:13:18;3.20;;;2.03;;
14817;SDS011;7500;57.698;11.986;2022-09-09T10:15:52;6.63;;;2.30;;
14817;SDS011;7500;57.698;11.986;2022-09-09T10:21:20;3.87;;;2.30;;
14817;SDS011;7500;57.698;11.986;2022-09-09T10:24:02;4.30;;;2.10;;
14817;SDS011;7500;57.698;11.986;2022-09-09T10:26:44;7.77;;;2.43;;
14817;SDS011;7500;57.698;11.986;2022-09-09T10:29:38;3.80;;;2.43;;
14817;SDS011;7500;57.698;11.986;2022-09-09T10:32:33;4.97;;;2.57;;
14817;SDS011;7500;57.698;11.986;2022-09-09T10:35:09;3.83;;;2.30;;
14817;SDS011;7500;57.698;11.986;2022-09-09T10:37:47;4.97;;;2.80;;
14817;SDS011;7500;57.698;11.986;2022-09-09T10:40:37;6.13;;;2.73;;
14817;SDS011;7500;57.698;11.986;2022-09-09T10:43:12;9.60;;;3.20;;
14817;SDS011;7500;57.698;11.986;2022-09-09T10:45:53;4.13;;;2.67;;
14817;SDS011;7500;57.698;11.986;2022-09-09T10:48:35;4.77;;;2.70;;
14817;SDS011;7500;57.698;11.986;2022-09-09T10:51:23;4.37;;;2.97;;
14817;SDS011;7500;57.698;11.986;2022-09-09T10:54:01;3.93;;;2.87;;
14817;SDS011;7500;57.698;11.986;2022-09-09T10:56:40;13.00;;;3.23;;
14817;SDS011;7500;57.698;11.986;2022-09-09T10:59:12;5.43;;;2.80;;
14817;SDS011;7500;57.698;11.986;2022-09-09T11:01:47;4.47;;;2.80;;
14817;SDS011;7500;57.698;11.986;2022-09-09T11:04:19;4.77;;;2.70;;
14817;SDS011;7500;57.698;11.986;2022-09-09T11:06:51;7.27;;;3.30;;
14817;SDS011;7500;57.698;11.986;2022-09-09T11:09:22;5.30;;;3.20;;
14817;SDS011;7500;57.698;11.986;2022-09-09T11:11:52;6.00;;;3.17;;
14817;SDS011;7500;57.698;11.986;2022-09-09T11:14:22;6.23;;;2.90;;
14817;SDS011;7500;57.698;11.986;2022-09-09T11:16:58;6.23;;;2.90;;
14817;SDS011;7500;57.698;11.986;2022-09-09T11:19:28;5.87;;;3.23;;
14817;SDS011;7500;57.698;11.986;2022-09-09T11:22:00;9.20;;;3.33;;
14817;SDS011;7500;57.698;11.986;2022-09-09T11:24:32;5.30;;;3.00;;
14817;SDS011;7500;57.698;11.986;2022-09-09T11:27:07;7.50;;;3.30;;
14817;SDS011;7500;57.698;11.986;2022-09-09T11:29:50;5.47;;;3.30;;
14817;SDS011;7500;57.698;11.986;2022-09-09T11:32:42;4.07;;;3.03;;
14817;SDS011;7500;57.698;11.986;2022-09-09T11:35:24;4.33;;;3.10;;
14817;SDS011;7500;57.698;11.986;2022-09-09T11:38:06;7.30;;;3.47;;
14817;SDS011;7500;57.698;11.986;2022-09-09T11:40:45;4.20;;;3.13;;
14817;SDS011;7500;57.698;11.986;2022-09-09T11:43:13;5.47;;;3.00;;
14817;SDS011;7500;57.698;11.986;2022-09-09T11:45:43;3.80;;;3.00;;
14817;SDS011;7500;57.698;11.986;2022-09-09T11:48:27;5.27;;;3.43;;
14817;SDS011;7500;57.698;11.986;2022-09-09T11:50:58;4.90;;;3.30;;
14817;SDS011;7500;57.698;11.986;2022-09-09T11:53:27;5.53;;;3.40;;
14817;SDS011;7500;57.698;11.986;2022-09-09T11:56:01;7.57;;;3.80;;
14817;SDS011;7500;57.698;11.986;2022-09-09T11:58:32;4.60;;;3.27;;
14817;SDS011;7500;57.698;11.986;2022-09-09T12:01:12;5.70;;;3.87;;
14817;SDS011;7500;57.698;11.986;2022-09-09T12:03:59;8.27;;;3.80;;
14817;SDS011;7500;57.698;11.986;2022-09-09T12:06:41;7.23;;;3.37;;
14817;SDS011;7500;57.698;11.986;2022-09-09T12:09:15;7.07;;;3.53;;
14817;SDS011;7500;57.698;11.986;2022-09-09T12:12:04;5.73;;;3.67;;
14817;SDS011;7500;57.698;11.986;2022-09-09T12:14:36;5.10;;;3.83;;
14817;SDS011;7500;57.698;11.986;2022-09-09T12:17:09;4.13;;;2.93;;
14817;SDS011;7500;57.698;11.986;2022-09-09T12:19:46;4.80;;;3.40;;
14817;SDS011;7500;57.698;11.986;2022-09-09T12:22:15;8.83;;;3.70;;
14817;SDS011;7500;57.698;11.986;2022-09-09T12:24:51;7.07;;;3.30;;
14817;SDS011;7500;57.698;11.986;2022-09-09T12:27:26;4.27;;;2.80;;
14817;SDS011;7500;57.698;11.986;2022-09-09T12:29:58;5.43;;;3.57;;
14817;SDS011;7500;57.698;11.986;2022-09-09T12:32:29;5.40;;;3.10;;
14817;SDS011;7500;57.698;11.986;2022-09-09T12:34:58;5.57;;;3.40;;
14817;SDS011;7500;57.698;11.986;2022-09-09T12:37:29;10.27;;;5.27;;
14817;SDS011;7500;57.698;11.986;2022-09-09T12:40:00;4.13;;;3.60;;
14817;SDS011;7500;57.698;11.986;2022-09-09T12:42:29;5.77;;;3.63;;
14817;SDS011;7500;57.698;11.986;2022-09-09T12:44:58;6.20;;;3.10;;
14817;SDS011;7500;57.698;11.986;2022-09-09T12:47:33;5.13;;;3.30;;
14817;SDS011;7500;57.698;11.986;2022-09-09T12:50:14;7.30;;;3.57;;
14817;SDS011;7500;57.698;11.986;2022-09-09T12:52:43;5.40;;;3.60;;
14817;SDS011;7500;57.698;11.986;2022-09-09T12:55:15;3.93;;;3.40;;
14817;SDS011;7500;57.698;11.986;2022-09-09T12:57:44;6.40;;;3.57;;
14817;SDS011;7500;57.698;11.986;2022-09-09T13:00:14;4.27;;;2.93;;
14817;SDS011;7500;57.698;11.986;2022-09-09T13:02:46;4.83;;;3.17;;
14817;SDS011;7500;57.698;11.986;2022-09-09T13:05:18;5.77;;;3.30;;
14817;SDS011;7500;57.698;11.986;2022-09-09T13:07:47;5.20;;;2.90;;
14817;SDS011;7500;57.698;11.986;2022-09-09T13:10:15;4.60;;;3.33;;
14817;SDS011;7500;57.698;11.986;2022-09-09T13:12:49;4.27;;;3.10;;
14817;SDS011;7500;57.698;11.986;2022-09-09T13:15:19;5.07;;;3.23;;
14817;SDS011;7500;57.698;11.986;2022-09-09T13:17:49;5.00;;;3.07;;
14817;SDS011;7500;57.698;11.986;2022-09-09T13:20:20;5.43;;;3.70;;
14817;SDS011;7500;57.698;11.986;2022-09-09T13:22:48;5.00;;;3.17;;
14817;SDS011;7500;57.698;11.986;2022-09-09T13:25:19;7.20;;;3.53;;
14817;SDS011;7500;57.698;11.986;2022-09-09T13:27:52;5.97;;;3.10;;
14817;SDS011;7500;57.698;11.986;2022-09-09T13:30:25;5.47;;;3.50;;
14817;SDS011;7500;57.698;11.986;2022-09-09T13:33:01;6.00;;;3.83;;
14817;SDS011;7500;57.698;11.986;2022-09-09T13:35:31;5.67;;;3.80;;
14817;SDS011;7500;57.698;11.986;2022-09-09T13:37:58;6.13;;;3.70;;
14817;SDS011;7500;57.698;11.986;2022-09-09T13:40:25;7.50;;;3.50;;
14817;SDS011;7500;57.698;11.986;2022-09-09T13:42:54;6.47;;;4.00;;
14817;SDS011;7500;57.698;11.986;2022-09-09T13:45:23;4.40;;;4.00;;
14817;SDS011;7500;57.698;11.986;2022-09-09T13:47:52;4.57;;;3.40;;
14817;SDS011;7500;57.698;11.986;2022-09-09T13:50:21;5.90;;;3.57;;
14817;SDS011;7500;57.698;11.986;2022-09-09T13:52:51;9.17;;;3.93;;
14817;SDS011;7500;57.698;11.986;2022-09-09T13:55:19;4.90;;;3.00;;
14817;SDS011;7500;57.698;11.986;2022-09-09T13:57:51;4.77;;;3.87;;
14817;SDS011;7500;57.698;11.986;2022-09-09T14:00:19;7.07;;;3.77;;
14817;SDS011;7500;57.698;11.986;2022-09-09T14:02:47;4.63;;;3.60;;
14817;SDS011;7500;57.698;11.986;2022-09-09T14:05:14;5.53;;;3.67;;
14817;SDS011;7500;57.698;11.986;2022-09-09T14:07:41;7.37;;;3.40;;
14817;SDS011;7500;57.698;11.986;2022-09-09T14:10:11;5.20;;;4.10;;
14817;SDS011;7500;57.698;11.986;2022-09-09T14:12:38;5.90;;;4.30;;
14817;SDS011;7500;57.698;11.986;2022-09-09T14:15:05;5.33;;;3.60;;
14817;SDS011;7500;57.698;11.986;2022-09-09T14:17:34;4.87;;;3.83;;
14817;SDS011;7500;57.698;11.986;2022-09-09T14:20:01;4.93;;;4.10;;
14817;SDS011;7500;57.698;11.986;2022-09-09T14:22:30;5.43;;;3.80;;
14817;SDS011;7500;57.698;11.986;2022-09-09T14:24:56;8.03;;;4.10;;
14817;SDS011;7500;57.698;11.986;2022-09-09T14:27:25;4.40;;;3.93;;
14817;SDS011;7500;57.698;11.986;2022-09-09T14:29:52;5.03;;;3.60;;
14817;SDS011;7500;57.698;11.986;2022-09-09T14:32:19;3.83;;;3.40;;
14817;SDS011;7500;57.698;11.986;2022-09-09T14:34:47;4.67;;;3.60;;
14817;SDS011;7500;57.698;11.986;2022-09-09T14:37:14;5.03;;;3.83;;
14817;SDS011;7500;57.698;11.986;2022-09-09T14:39:41;7.33;;;4.43;;
14817;SDS011;7500;57.698;11.986;2022-09-09T14:42:09;13.00;;;3.90;;
14817;SDS011;7500;57.698;11.986;2022-09-09T14:44:38;4.27;;;3.77;;
14817;SDS011;7500;57.698;11.986;2022-09-09T14:47:05;5.13;;;3.40;;
14817;SDS011;7500;57.698;11.986;2022-09-09T14:49:33;5.67;;;3.53;;
14817;SDS011;7500;57.698;11.986;2022-09-09T14:52:00;4.23;;;3.60;;
14817;SDS011;7500;57.698;11.986;2022-09-09T14:54:27;3.30;;;3.00;;
14817;SDS011;7500;57.698;11.986;2022-09-09T14:56:54;6.43;;;3.80;;
14817;SDS011;7500;57.698;11.986;2022-09-09T14:59:22;3.30;;;2.60;;
14817;SDS011;7500;57.698;11.986;2022-09-09T15:01:50;4.73;;;3.37;;
14817;SDS011;7500;57.698;11.986;2022-09-09T15:04:17;3.90;;;3.27;;
14817;SDS011;7500;57.698;11.986;2022-09-09T15:06:44;3.07;;;2.70;;
14817;SDS011;7500;57.698;11.986;2022-09-09T15:09:13;3.30;;;2.97;;
14817;SDS011;7500;57.698;11.986;2022-09-09T15:11:40;5.43;;;2.97;;
14817;SDS011;7500;57.698;11.986;2022-09-09T15:14:08;6.27;;;3.10;;
14817;SDS011;7500;57.698;11.986;2022-09-09T15:16:37;3.73;;;3.10;;